• Join FlightAware (Why Join?)
  • Login
  • US Flag 
04:05AM EDT


 

Airport Tracker/Info


-or-


 

Live Flight TrackerFlight Track Log ✈ UPS2973 ✈ 15-Aug-2014 ✈ KPDX - KSDF

Flight Track Log - Related Links

Times and Time Zones

All times are in EDT time to prevent confusion due to time zone crossing. See the UPS2973 flight status page for this flight to view local times or setup timezone preferences in your user account.

Time Position Orientation Groundspeed Altitude Reporting Facility
EDT Latitude Longitude Course Direction KTS MPH feet Rate Location/Type
09:18AM 45.5908 -122.6144 303° West 159 183 700  Level Seattle Center
09:18AM 45.6028 -122.6406 303° West 169 194 1,900 1,920 Climbing Seattle Center
09:19AM 45.6136 -122.6647 303° West 168 193 2,500 2,040 Climbing Seattle Center
09:19AM 45.6311 -122.7061 301° West 229 264 3,800 2,280 Climbing Seattle Center
09:20AM 45.6475 -122.7478 299° West 239 275 4,800 2,640 Climbing Seattle Center
09:20AM 45.6544 -122.8017 280° West 270 311 6,500 3,000 Climbing Seattle Center
09:21AM 45.6253 -122.8281 212° Southwest 279 321 7,900 2,760 Climbing Seattle Center
09:22AM 45.5711 -122.7550 137° Southeast 294 338 10,700 2,580 Climbing Seattle Center
09:23AM 45.5203 -122.6328 121° Southeast 353 406 13,200 2,880 Climbing Seattle Center
09:24AM 45.4700 -122.5050 119° Southeast 373 429 16,600 2,820 Climbing Seattle Center
09:25AM 45.4228 -122.3897 120° Southeast 384 442 18,900 2,520 Climbing Seattle Center
09:26AM 45.3611 -122.2403 120° Southeast 424 488 21,700 2,520 Climbing Seattle Center
09:27AM 45.3008 -122.0917 120° Southeast 440 506 24,100 2,160 Climbing Seattle Center
09:28AM 45.2400 -121.9231 117° Southeast 471 542 26,100 1,920 Climbing Seattle Center
09:29AM 45.1956 -121.7508 110° East 487 560 28,000 1,740 Climbing Seattle Center
09:30AM 45.1481 -121.5647 110° East 507 583 29,700 2,100 Climbing Seattle Center
09:31AM 45.0881 -121.3339 110° East 510 587 32,300 2,640 Climbing Seattle Center
09:32AM 45.0403 -121.1522 110° East 499 574 35,100 2,280 Climbing Seattle Center
09:33AM 44.9931 -120.9744 111° Southeast 473 544 37,000 900 Climbing Seattle Center
09:34AM 44.9478 -120.8050 111° Southeast 467 537 37,000  Level Seattle Center
09:35AM 44.9011 -120.6314 111° Southeast 477 549 37,000  Level Seattle Center
09:36AM 44.8533 -120.4547 111° Southeast 483 556 37,000  Level Seattle Center
09:37AM 44.8061 -120.2789 111° Southeast 485 558 37,000  Level Seattle Center
09:38AM 44.7881 -120.0906 98° East 484 557 37,000  Level Seattle Center
09:39AM 44.7928 -119.9106 88° East 484 557 37,000 540 Level Seattle Center
09:40AM 44.7978 -119.7247 88° East 485 558 38,100 960 Climbing Seattle Center
09:41AM 44.7981 -119.5025 90° East 481 554 39,000 420 Climbing Seattle Center
09:42AM 44.7967 -119.3189 91° East 477 549 39,000  Level Seattle Center
09:43AM 44.7956 -119.1347 90° East 475 547 39,000  Level Seattle Center
09:44AM 44.7944 -118.9506 90° East 474 545 39,000  Level Seattle Center
09:45AM 44.7931 -118.7658 91° East 474 545 39,000  Level Seattle Center
09:46AM 44.7911 -118.5811 91° East 474 545 39,000  Level Seattle Center
09:47AM 44.7889 -118.3964 91° East 474 545 39,000  Level Seattle Center
09:48AM 44.7861 -118.2111 91° East 475 547 39,000  Level Seattle Center
09:49AM 44.7831 -118.0031 91° East 475 547 39,000  Level Seattle Center
09:50AM 44.7797 -117.8175 91° East 475 547 39,000  Level Seattle Center
09:51AM 44.7764 -117.6319 91° East 475 547 39,000  Level Seattle Center
09:52AM 44.7722 -117.4467 92° East 475 547 39,000  Level Seattle Center
09:53AM 44.7686 -117.2614 92° East 475 547 39,000  Level Seattle Center
09:54AM 44.7639 -117.0767 92° East 474 545 39,000  Level Seattle Center
09:56AM 44.7575 -116.8242 92° East 475 547 39,000  Level Salt Lake Center
09:57AM 44.7519 -116.6383 92° East 475 547 39,000  Level Salt Lake Center
09:58AM 44.7467 -116.4522 92° East 475 547 39,000  Level Salt Lake Center
09:58AM 44.7433 -116.3339 92° East 474 545 39,000  Level Seattle Center
09:59AM 44.7375 -116.1461 92° East 475 547 39,000  Level Seattle Center
10:00AM 44.7308 -115.9583 93° East 475 547 39,000  Level Seattle Center
10:02AM 44.7219 -115.6967 93° East 475 547 39,000  Level Seattle Center
10:03AM 44.7133 -115.4783 93° East 475 547 39,000  Level Salt Lake Center
10:04AM 44.7061 -115.2922 93° East 476 548 39,000  Level Salt Lake Center
10:05AM 44.6986 -115.1089 93° East 475 547 39,000  Level Salt Lake Center
10:06AM 44.6908 -114.9258 93° East 472 543 39,000  Level Salt Lake Center
10:07AM 44.6822 -114.7425 94° East 472 543 39,000  Level Salt Lake Center
10:08AM 44.6744 -114.5611 93° East 469 540 39,000  Level Salt Lake Center
10:09AM 44.6656 -114.3783 94° East 469 540 39,000  Level Salt Lake Center
10:10AM 44.6564 -114.1975 94° East 468 539 39,000  Level Salt Lake Center
10:11AM 44.6453 -113.9808 94° East 467 537 39,000  Level Salt Lake Center
10:12AM 44.6369 -113.7992 94° East 467 537 39,000  Level Salt Lake Center
10:13AM 44.6278 -113.6181 94° East 467 537 39,000  Level Salt Lake Center
10:14AM 44.6178 -113.4364 94° East 467 537 39,000  Level Salt Lake Center
10:15AM 44.6067 -113.2542 95° East 467 537 39,000  Level Salt Lake Center
10:16AM 44.5956 -113.0722 95° East 468 539 39,000  Level Salt Lake Center
10:17AM 44.5844 -112.8894 95° East 468 539 39,000  Level Salt Lake Center
10:18AM 44.5697 -112.6656 95° East 472 543 39,000  Level Salt Lake Center
10:19AM 44.5594 -112.4869 95° East 472 543 39,000  Level Salt Lake Center
10:20AM 44.5458 -112.2928 96° East 472 543 39,000  Level Salt Lake Center
10:21AM 44.5331 -112.1081 95° East 472 543 39,000  Level Salt Lake Center
10:22AM 44.5203 -111.9217 95° East 472 543 39,000  Level Salt Lake Center
10:23AM 44.5064 -111.7364 96° East 472 543 39,000  Level Salt Lake Center
10:25AM 44.4936 -111.5511 95° East 472 543 39,000  Level Salt Lake Center
10:26AM 44.4783 -111.3511 96° East 472 543 39,000  Level Salt Lake Center
10:27AM 44.4636 -111.1667 96° East 471 542 39,000  Level Salt Lake Center
10:28AM 44.4494 -110.9836 96° East 471 542 39,000  Level Salt Lake Center
10:29AM 44.4344 -110.7989 96° East 471 542 39,000  Level Salt Lake Center
10:30AM 44.4194 -110.6164 97° East 470 541 39,000  Level Salt Lake Center
10:31AM 44.4044 -110.4239 96° East 468 539 39,000  Level Salt Lake Center
10:32AM 44.3897 -110.2444 96° East 465 535 39,000  Level Salt Lake Center
10:33AM 44.3733 -110.0644 97° East 465 535 39,000  Level Salt Lake Center
10:34AM 44.3592 -109.8858 96° East 461 531 39,000  Level Salt Lake Center
10:35AM 44.3439 -109.7092 97° East 457 526 39,000  Level Salt Lake Center
10:36AM 44.3267 -109.5297 98° East 462 532 39,000  Level Salt Lake Center
10:37AM 44.3092 -109.3408 97° East 459 528 39,000  Level Salt Lake Center
10:38AM 44.2933 -109.1661 97° East 459 528 39,000  Level Salt Lake Center
10:39AM 44.2753 -108.9897 98° East 459 528 39,000  Level Salt Lake Center
10:40AM 44.2550 -108.7808 98° East 459 528 39,000  Level Salt Lake Center
10:41AM 44.2381 -108.6064 98° East 459 528 39,000  Level Salt Lake Center
10:42AM 44.2200 -108.4306 98° East 460 529 39,000  Level Salt Lake Center
10:43AM 44.2025 -108.2575 98° East 459 528 39,000  Level Salt Lake Center
10:44AM 44.1831 -108.0833 99° East 458 527 39,000  Level Salt Lake Center
10:45AM 44.1617 -107.8764 98° East 458 527 39,000  Level Salt Lake Center
10:46AM 44.1425 -107.7042 99° East 457 526 39,000  Level Salt Lake Center
10:47AM 44.1250 -107.5294 98° East 457 526 39,000  Level Salt Lake Center
10:48AM 44.1056 -107.3583 99° East 455 524 39,000  Level Salt Lake Center
10:49AM 44.0858 -107.1847 99° East 455 524 39,000  Level Salt Lake Center
10:50AM 44.0636 -106.9781 98° East 455 524 39,000  Level Salt Lake Center
10:52AM 44.0425 -106.7961 99° East 455 524 39,000  Level Denver Center
10:53AM 44.0206 -106.6017 99° East 455 524 39,000  Level Denver Center
10:54AM 44.0003 -106.4353 100° East 456 525 39,000  Level Denver Center
10:55AM 43.9908 -106.2839 95° East 456 525 39,000  Level Salt Lake Center
10:56AM 43.9811 -106.0975 94° East 457 526 39,000  Level Salt Lake Center
10:57AM 43.9667 -105.8728 95° East 457 526 39,000  Level Denver Center
10:58AM 43.9547 -105.7044 96° East 457 526 39,000  Level Denver Center
10:59AM 43.9422 -105.5092 95° East 457 526 39,000  Level Denver Center
11:00AM 43.9311 -105.3417 95° East 457 526 39,000  Level Denver Center
11:01AM 43.9167 -105.1467 96° East 457 526 39,000  Level Denver Center
11:02AM 43.9050 -104.9800 95° East 455 524 39,000  Level Denver Center
11:03AM 43.8903 -104.7869 96° East 454 522 39,000  Level Denver Center
11:04AM 43.8783 -104.6225 96° East 451 519 39,000  Level Denver Center
11:05AM 43.8656 -104.4578 96° East 450 518 39,000  Level Denver Center
11:06AM 43.8514 -104.2694 96° East 444 511 39,000  Level Denver Center
11:07AM 43.8381 -104.1092 97° East 441 507 39,000  Level Denver Center
11:08AM 43.8236 -103.9206 96° East 441 507 39,000  Level Denver Center
11:09AM 43.8103 -103.7594 96° East 440 506 39,000  Level Denver Center
11:10AM 43.7944 -103.5706 97° East 441 507 39,000  Level Denver Center
11:11AM 43.7806 -103.4072 97° East 443 510 39,000  Level Denver Center
11:12AM 43.7656 -103.2172 96° East 442 509 39,000  Level Denver Center
11:13AM 43.7500 -103.0486 97° East 452 520 39,000  Level Denver Center
11:14AM 43.7322 -102.8539 97° East 455 524 39,000  Level Denver Center
11:15AM 43.7164 -102.6831 97° East 461 531 39,000  Level Denver Center
11:16AM 43.6958 -102.4869 98° East 462 532 39,000  Level Denver Center
11:17AM 43.6794 -102.3200 98° East 461 531 39,000  Level Denver Center
11:18AM 43.6606 -102.1242 98° East 460 529 39,000  Level Denver Center
11:19AM 43.6428 -101.9458 98° East 459 528 39,000  Level Denver Center
11:21AM 43.6253 -101.7731 98° East 459 528 39,000  Level Denver Center
11:22AM 43.6081 -101.6000 98° East 458 527 39,000  Level Denver Center
11:23AM 43.5900 -101.4286 98° East 455 524 39,000  Level Denver Center
11:24AM 43.5722 -101.2578 98° East 454 522 39,000  Level Denver Center
11:25AM 43.5542 -101.0878 98° East 453 521 39,000  Level Denver Center
11:26AM 43.5317 -100.8839 99° East 451 519 39,000  Level Denver Center
11:27AM 43.5131 -100.7136 99° East 451 519 39,000  Level Denver Center
11:27AM 43.5042 -100.6456 100° East 451 519 39,000  Level Denver Center
11:28AM 43.4681 -100.4800 107° East 452 520 39,000  Level Denver Center
11:29AM 43.4339 -100.3158 106° East 452 520 39,000  Level Denver Center
11:30AM 43.3981 -100.1489 106° East 452 520 39,000  Level Denver Center
11:31AM 43.3536 -99.9539 107° East 452 520 39,000  Level Denver Center
11:32AM 43.3161 -99.7911 108° East 452 520 39,000  Level Denver Center
11:33AM 43.2789 -99.6297 108° East 449 517 39,000  Level Denver Center
11:34AM 43.2428 -99.4706 107° East 447 514 39,000  Level Minneapolis Center
11:35AM 43.2181 -99.3053 102° East 446 513 39,000  Level Minneapolis Center
11:36AM 43.2006 -99.1378 98° East 446 513 39,000  Level Minneapolis Center
11:37AM 43.1814 -98.9472 98° East 447 514 39,000  Level Minneapolis Center
11:38AM 43.1642 -98.7781 98° East 450 518 39,000  Level Minneapolis Center
11:39AM 43.1464 -98.6053 98° East 459 528 39,000  Level Minneapolis Center
11:41AM 43.1242 -98.4303 100° East 469 540 39,000  Level Minneapolis Center
11:42AM 43.0822 -98.2594 109° East 474 545 39,000  Level Minneapolis Center
11:43AM 43.0289 -98.0533 109° East 478 550 39,000  Level Minneapolis Center
11:44AM 42.9819 -97.8778 110° East 481 554 39,000  Level Minneapolis Center
11:45AM 42.9369 -97.7100 110° East 482 555 39,000  Level Minneapolis Center
11:46AM 42.8908 -97.5389 110° East 482 555 39,000  Level Minneapolis Center
11:47AM 42.8447 -97.3689 110° East 482 555 39,000  Level Minneapolis Center
11:48AM 42.7983 -97.1997 110° East 481 554 39,000  Level Minneapolis Center
11:49AM 42.7428 -96.9989 111° Southeast 478 550 39,000  Level Minneapolis Center
11:50AM 42.6931 -96.8194 111° Southeast 476 548 39,000  Level Minneapolis Center
11:51AM 42.6475 -96.6569 111° Southeast 474 545 39,000  Level Minneapolis Center
11:52AM 42.5992 -96.4853 111° Southeast 472 543 39,000  Level Minneapolis Center
11:53AM 42.5542 -96.3258 111° Southeast 471 542 39,000  Level Minneapolis Center
11:54AM 42.5069 -96.1603 111° Southeast 470 541 39,000  Level Minneapolis Center
11:55AM 42.4594 -95.9956 111° Southeast 469 540 39,000  Level Minneapolis Center
11:56AM 42.4119 -95.8311 111° Southeast 469 540 39,000  Level Minneapolis Center
11:57AM 42.3544 -95.6339 111° Southeast 469 540 39,000  Level Minneapolis Center
11:58AM 42.3064 -95.4697 112° Southeast 469 540 39,000  Level Minneapolis Center
11:59AM 42.2581 -95.3056 112° Southeast 469 540 39,000  Level Minneapolis Center
12:00PM 42.2094 -95.1417 112° Southeast 469 540 39,000  Level Minneapolis Center
12:01PM 42.1603 -94.9778 112° Southeast 470 541 39,000  Level Minneapolis Center
12:02PM 42.1111 -94.8139 112° Southeast 470 541 39,000  Level Minneapolis Center
12:03PM 42.0517 -94.6178 112° Southeast 470 541 39,000  Level Minneapolis Center
12:04PM 42.0019 -94.4544 112° Southeast 471 542 39,000  Level Minneapolis Center
12:05PM 41.9519 -94.2908 112° Southeast 471 542 39,000  Level Minneapolis Center
12:06PM 41.9014 -94.1269 112° Southeast 473 544 39,000  Level Minneapolis Center
12:07PM 41.8506 -93.9628 113° Southeast 474 545 39,000  Level Minneapolis Center
12:08PM 41.7967 -93.7903 113° Southeast 475 547 39,000  Level Minneapolis Center
12:10PM 41.7442 -93.6228 113° Southeast 475 547 39,000  Level Minneapolis Center
12:11PM 41.6947 -93.4658 113° Southeast 476 548 39,000  Level Minneapolis Center
12:12PM 41.6331 -93.2719 113° Southeast 476 548 39,000  Level Minneapolis Center
12:13PM 41.5808 -93.1100 113° Southeast 476 548 39,000  Level Minneapolis Center
12:14PM 41.5286 -92.9478 113° Southeast 477 549 39,000  Level Minneapolis Center
12:15PM 41.4764 -92.7856 113° Southeast 478 550 39,000  Level Minneapolis Center
12:16PM 41.4233 -92.6228 113° Southeast 479 551 39,000  Level Minneapolis Center
12:17PM 41.3589 -92.4269 114° Southeast 481 554 39,000  Level Minneapolis Center
12:18PM 41.3050 -92.2631 114° Southeast 483 556 39,000  Level Minneapolis Center
12:19PM 41.2506 -92.0992 114° Southeast 484 557 39,000  Level Minneapolis Center
12:20PM 41.1958 -91.9344 114° Southeast 484 557 39,000  Level Minneapolis Center
12:21PM 41.1408 -91.7700 114° Southeast 485 558 39,000  Level Minneapolis Center
12:22PM 41.0739 -91.5739 114° Southeast 489 563 39,000  Level Kansas City Center
12:23PM 41.0178 -91.4094 114° Southeast 490 564 39,000  Level Kansas City Center
12:24PM 40.9536 -91.2219 114° Southeast 491 565 39,000  Level Kansas City Center
12:25PM 40.8964 -91.0567 115° Southeast 493 567 39,000  Level Kansas City Center
12:26PM 40.8392 -90.8911 115° Southeast 494 568 39,000  Level Kansas City Center
12:27PM 40.7811 -90.7247 115° Southeast 496 571 39,000  Level Kansas City Center
12:28PM 40.7114 -90.5261 115° Southeast 498 573 39,000  Level Kansas City Center
12:29PM 40.6528 -90.3603 115° Southeast 500 575 39,000  Level Kansas City Center
12:30PM 40.5911 -90.1869 115° Southeast 502 578 39,000  Level Kansas City Center
12:31PM 40.5236 -89.9981 115° Southeast 504 580 39,000  Level Kansas City Center
12:32PM 40.4633 -89.8311 115° Southeast 506 582 39,000  Level Kansas City Center
12:33PM 40.4033 -89.6650 115° Southeast 508 585 39,000 -180 Level Kansas City Center
12:35PM 40.3456 -89.4969 114° Southeast 505 581 38,700 -720 Descending Kansas City Center
12:36PM 40.3169 -89.3231 102° East 495 570 37,600 -1,020 Descending Kansas City Center
12:37PM 40.2878 -89.1497 102° East 493 567 36,600 -1,140 Descending Kansas City Center
12:38PM 40.2144 -88.9469 115° Southeast 502 578 35,300 -1,020 Descending Kansas City Center
12:39PM 40.1364 -88.7614 119° Southeast 501 577 34,300 -960 Descending Chicago Center
12:40PM 40.0719 -88.6031 118° Southeast 495 570 33,100 -1,560 Descending Chicago Center
12:41PM 40.0067 -88.4436 118° Southeast 496 571 31,100 -2,040 Descending Chicago Center
12:42PM 39.9281 -88.2522 118° Southeast 498 573 29,000 -1,020 Descending Chicago Center
12:43PM 39.8617 -88.0989 119° Southeast 491 565 29,000 -60 Level Chicago Center
12:44PM 39.7922 -87.9444 120° Southeast 494 568 28,900 -540 Descending Chicago Center
12:45PM 39.7083 -87.8036 128° Southeast 494 568 27,900 -1,020 Descending Chicago Center
12:46PM 39.6225 -87.6706 130° Southeast 484 557 26,800 -1,140 Descending Chicago Center
12:47PM 39.5217 -87.5156 130° Southeast 470 541 25,600 -1,080 Descending Chicago Center
12:49PM 39.4069 -87.3406 130° Southeast 459 528 24,100 -960 Descending Indianapolis Center
12:50PM 39.3264 -87.2178 130° Southeast 451 519 23,200 -900 Descending Indianapolis Center
12:51PM 39.2447 -87.0944 131° Southeast 441 507 22,300 -900 Descending Indianapolis Center
12:52PM 39.1556 -86.9594 130° Southeast 427 491 21,400 -1,200 Descending Indianapolis Center
12:53PM 39.0872 -86.8575 131° Southeast 413 475 19,800 -1,740 Descending Indianapolis Center
12:54PM 39.0139 -86.7478 131° Southeast 403 464 17,800 -1,740 Descending Indianapolis Center
12:55PM 38.9419 -86.6403 131° Southeast 393 452 16,300 -1,800 Descending Indianapolis Center
12:56PM 38.8589 -86.5164 131° Southeast 377 434 14,200 -1,800 Descending Indianapolis Center
12:57PM 38.7919 -86.4175 131° Southeast 365 420 12,600 -1,500 Descending Indianapolis Center
12:58PM 38.7269 -86.3217 131° Southeast 353 406 11,100 -1,020 Descending Indianapolis Center
12:59PM 38.6586 -86.2356 135° Southeast 343 395 10,600 -480 Descending Indianapolis Center
01:00PM 38.5883 -86.1517 137° Southeast 343 395 10,100 -540 Descending Indianapolis Center
01:01PM 38.5122 -86.0972 151° Southeast 308 354 9,500 -660 Descending Indianapolis Center
01:02PM 38.4342 -86.0536 156° South 307 353 8,800 -840 Descending Indianapolis Center
01:03PM 38.3414 -86.0008 156° South 305 351 7,800 -900 Descending Indianapolis Center
01:04PM 38.2700 -85.9461 149° Southeast 301 346 7,000 -780 Descending Indianapolis Center
01:05PM 38.2006 -85.8861 146° Southeast 301 346 6,300 -660 Descending Indianapolis Center
01:06PM 38.1306 -85.8394 152° Southeast 286 329 5,700 -1,020 Descending Indianapolis Center
01:07PM 38.0611 -85.8189 167° South 269 310 4,200 -1,260 Descending Indianapolis Center
01:08PM 37.9867 -85.7839 160° South 262 302 3,100 -840 Descending Indianapolis Center
01:11PM 38.1167 -85.7333 17° North 133 153 1,200 -720 Descending Louisville TRACON